Aérodrome :
LOGIN :

S'inscrire | Disclaimer

   EN    FR    IT 

 










Légende :    VFR   VFR Marginal   IFR   IFR Intensif   IFR Très Intensif
Visi : 
Plafond : 
>= 8 km
>= 3000ft
5 à 8 km
1000 à 3000 ft
1500m à 5 km
500 à 1000 ft
800 à 1500m
200 à 500 ft
< 800m
< 200 ft
Symboles :   Orages  Brouillard  Fortes neiges  Fortes précipitations  Vent > 20 kt
SIGMETs :   Divers  Orages  Givrage  Turbulence  Onde Orograph.  Cendres Volcan.






- Altitude de l'aérodrome : 506 ft
- Code IATA : GOT


ESGG - Landvetter

DERNIER METAR :
  • 121520Z 28011KT 240V310 9999 SCT025 15/09 Q1020

METARs EXPIRÉS :
  • 121450Z 26013KT 230V300 9999 SCT029 15/08 Q1020
  • 121420Z 26014KT 9999 SCT031 14/08 Q1020
  • 121350Z 27014KT 9999 SCT034 16/08 Q1020
  • 121320Z 26013KT 9999 SCT030 16/08 Q1020
  • 121250Z 25014KT 9999 SCT032 15/07 Q1020

TAF TAF ESGG
Valide du 12 à 12h jusqu'au 13 à 12h UTC


121130Z 1212/1312 26012KT 9999 SCT030
TEMPO 1216/1219 SHRA BKN020TCU
PROB40 1221/1305 BKN010



MET'MAP, la Météo Aéronautique d'un coup d'oeil ! - Copyright ORBIFLY Décembre 2007 - Disclaimer

ORBIFLY MET'MAP TEAM :

Programmation & Développement : Alexandra Zaïnal
Sur une idée originale de : Baudouin d'Aumeries
Assistance à la programmation : Marc-Olivier Méhu
Soutien technique & logistique : Manuel Goepfert

Contact : metmap@orbifly.com




SOURCES & CREDITS :

   NOAA